createdAt,value
2023-05-10T00:01:44.223Z,5.20
2023-05-10T00:04:12.894Z,4.63
2023-05-10T00:06:40.157Z,5.63
2023-05-10T00:09:07.341Z,5.05
2023-05-10T00:11:34.488Z,4.78
2023-05-10T00:14:01.688Z,4.32
2023-05-10T00:16:28.973Z,4.55
2023-05-10T00:18:56.295Z,4.25
2023-05-10T00:21:24.798Z,4.22
2023-05-10T00:23:51.973Z,3.90
2023-05-10T00:26:19.147Z,4.60
2023-05-10T00:28:52.460Z,3.88
2023-05-10T00:31:19.814Z,3.97
2023-05-10T00:33:47.021Z,3.83
2023-05-10T00:36:14.177Z,4.13
2023-05-10T00:38:43.488Z,4.97
2023-05-10T00:41:10.717Z,3.70
2023-05-10T00:43:40.082Z,4.40
2023-05-10T00:46:07.406Z,4.05
2023-05-10T00:48:35.333Z,4.45
2023-05-10T00:51:02.746Z,3.75
2023-05-10T00:53:32.099Z,4.30
2023-05-10T00:56:00.785Z,2.85
2023-05-10T00:58:29.289Z,2.40
2023-05-10T01:00:56.638Z,1.30
2023-05-10T01:03:23.930Z,1.30
2023-05-10T01:05:51.181Z,1.10
2023-05-10T01:08:19.247Z,1.10
2023-05-10T01:10:46.511Z,0.80
2023-05-10T01:13:24.627Z,0.80
2023-05-10T01:15:51.966Z,0.80
2023-05-10T01:18:21.613Z,0.70
2023-05-10T01:20:59.346Z,0.63
2023-05-10T01:23:42.644Z,0.80
2023-05-10T01:26:32.576Z,0.98
2023-05-10T01:29:25.029Z,0.70
2023-05-10T01:32:21.864Z,0.60
2023-05-10T01:35:00.585Z,0.63
2023-05-10T01:37:46.396Z,0.70
2023-05-10T01:40:20.751Z,0.40
2023-05-10T01:42:52.245Z,0.75
2023-05-10T01:45:27.905Z,0.57
2023-05-10T01:48:06.171Z,0.60
2023-05-10T01:50:36.400Z,0.70
2023-05-10T01:53:07.453Z,0.60
2023-05-10T01:55:40.466Z,1.63
2023-05-10T01:58:13.885Z,0.50
2023-05-10T02:00:44.040Z,0.60
2023-05-10T02:03:14.561Z,0.70
2023-05-10T02:05:44.102Z,0.60
2023-05-10T02:08:12.958Z,0.60
2023-05-10T02:10:40.912Z,0.70
2023-05-10T02:13:09.172Z,0.65
2023-05-10T02:15:37.932Z,0.80
2023-05-10T02:18:07.026Z,0.80
2023-05-10T02:20:37.808Z,0.70
2023-05-10T02:23:06.007Z,0.70
2023-05-10T02:25:34.111Z,0.70
2023-05-10T02:28:04.055Z,0.65
2023-05-10T02:30:33.225Z,0.70
2023-05-10T02:33:01.057Z,0.40
2023-05-10T02:35:28.988Z,0.60
2023-05-10T02:37:59.399Z,0.70
2023-05-10T02:40:28.945Z,0.63
2023-05-10T02:42:58.600Z,0.80
2023-05-10T02:45:30.972Z,0.57
2023-05-10T02:47:59.472Z,0.85
2023-05-10T02:50:29.207Z,0.60
2023-05-10T02:53:02.078Z,0.60
2023-05-10T02:55:36.055Z,0.43
2023-05-10T02:58:03.973Z,0.57
2023-05-10T03:00:31.675Z,0.50
2023-05-10T03:02:59.014Z,0.50
2023-05-10T03:05:27.216Z,0.63
2023-05-10T03:07:55.524Z,0.90
2023-05-10T03:10:28.005Z,1.30
2023-05-10T03:13:06.724Z,0.70
2023-05-10T03:15:43.309Z,0.90
2023-05-10T03:18:16.201Z,0.80
2023-05-10T03:20:47.883Z,0.80
2023-05-10T03:23:23.448Z,0.65
2023-05-10T03:25:53.029Z,0.70
2023-05-10T03:28:21.789Z,0.82
2023-05-10T03:30:50.363Z,0.80
2023-05-10T03:33:17.585Z,0.70
2023-05-10T03:35:46.902Z,1.33
2023-05-10T03:38:15.096Z,0.90
2023-05-10T03:40:42.391Z,0.70
2023-05-10T03:43:11.049Z,0.90
2023-05-10T03:45:38.216Z,0.70
2023-05-10T03:48:06.474Z,1.00
2023-05-10T03:50:33.715Z,0.93
2023-05-10T03:53:01.297Z,0.90
2023-05-10T03:55:29.306Z,0.90
2023-05-10T03:57:56.946Z,0.93
2023-05-10T04:00:26.117Z,1.52
2023-05-10T04:02:56.010Z,1.30
2023-05-10T04:05:24.132Z,1.30
2023-05-10T04:07:53.760Z,1.30
2023-05-10T04:10:20.956Z,1.48
2023-05-10T04:12:48.197Z,1.63
2023-05-10T04:15:15.492Z,1.45
2023-05-10T04:17:44.080Z,1.38
2023-05-10T04:20:12.325Z,1.55
2023-05-10T04:22:39.822Z,1.20
2023-05-10T04:25:07.959Z,1.48
2023-05-10T04:27:35.270Z,1.17
2023-05-10T04:30:02.616Z,1.40
2023-05-10T04:32:29.872Z,1.40
2023-05-10T04:34:58.454Z,1.45
2023-05-10T04:37:25.626Z,1.38
2023-05-10T04:39:52.785Z,1.80
2023-05-10T04:42:19.922Z,1.35
2023-05-10T04:44:47.081Z,1.45
2023-05-10T04:47:14.284Z,1.50
2023-05-10T04:49:41.477Z,1.48
2023-05-10T04:52:10.028Z,1.33
2023-05-10T04:54:37.189Z,1.35
2023-05-10T04:57:04.493Z,1.63
2023-05-10T04:59:31.643Z,1.50
2023-05-10T05:01:58.872Z,1.27
2023-05-10T05:04:26.057Z,1.30
2023-05-10T05:06:54.032Z,1.50
2023-05-10T05:09:22.725Z,1.50
2023-05-10T05:11:49.869Z,1.67
2023-05-10T05:14:17.057Z,1.27
2023-05-10T05:16:44.337Z,1.90
2023-05-10T05:19:11.470Z,1.60
2023-05-10T05:21:38.675Z,1.40
2023-05-10T05:24:06.862Z,1.85
2023-05-10T05:26:35.384Z,1.58
2023-05-10T05:29:02.549Z,1.50
2023-05-10T05:31:30.033Z,3.03
2023-05-10T05:33:57.252Z,1.63
2023-05-10T05:36:24.421Z,1.40
2023-05-10T05:38:51.607Z,1.42
2023-05-10T05:41:18.745Z,1.30
2023-05-10T05:43:47.230Z,1.27
2023-05-10T05:46:14.483Z,1.83
2023-05-10T05:48:41.707Z,1.30
2023-05-10T05:51:08.846Z,1.42
2023-05-10T05:53:36.054Z,1.40
2023-05-10T05:56:03.465Z,1.38
2023-05-10T05:58:30.641Z,1.23
2023-05-10T06:00:59.136Z,1.35
2023-05-10T06:03:26.602Z,1.63
2023-05-10T06:05:53.926Z,1.70
2023-05-10T06:08:21.092Z,1.88
2023-05-10T06:10:48.236Z,1.60
2023-05-10T06:13:15.552Z,1.20
2023-05-10T06:15:42.755Z,1.50
2023-05-10T06:18:11.335Z,1.25
2023-05-10T06:20:38.550Z,1.27
2023-05-10T06:23:05.713Z,1.50
2023-05-10T06:25:32.896Z,1.27
2023-05-10T06:28:00.112Z,1.33
2023-05-10T06:30:27.443Z,1.33
2023-05-10T06:32:55.535Z,1.85
2023-05-10T06:35:24.298Z,1.70
2023-05-10T06:37:51.671Z,1.60
2023-05-10T06:40:19.104Z,2.00
2023-05-10T06:42:46.404Z,1.70
2023-05-10T06:45:13.956Z,1.63
2023-05-10T06:47:41.422Z,1.88
2023-05-10T06:50:09.387Z,2.17
2023-05-10T06:52:38.180Z,2.00
2023-05-10T06:55:06.238Z,2.40
2023-05-10T06:57:33.405Z,2.47
2023-05-10T07:00:00.802Z,2.17
2023-05-10T07:02:28.652Z,2.10
2023-05-10T07:04:55.948Z,2.15
2023-05-10T07:07:23.167Z,2.30
2023-05-10T07:09:51.704Z,2.45
2023-05-10T07:12:18.985Z,2.28
2023-05-10T07:14:46.264Z,2.00
2023-05-10T07:17:13.465Z,2.70
2023-05-10T07:19:41.896Z,2.75
2023-05-10T07:22:09.090Z,2.50
2023-05-10T07:24:36.393Z,2.10
2023-05-10T07:27:05.541Z,2.55
2023-05-10T07:29:32.722Z,2.58
2023-05-10T07:31:59.976Z,2.70
2023-05-10T07:34:27.150Z,2.70
2023-05-10T07:36:54.428Z,3.05
2023-05-10T07:39:27.459Z,2.80
2023-05-10T07:41:55.509Z,2.60
2023-05-10T07:44:24.169Z,3.13
2023-05-10T07:46:51.463Z,3.45
2023-05-10T07:49:18.815Z,3.30
2023-05-10T07:51:46.030Z,2.75
2023-05-10T07:54:13.647Z,3.20
2023-05-10T07:56:41.153Z,3.63
2023-05-10T07:59:09.750Z,3.40
2023-05-10T08:01:39.249Z,2.90
2023-05-10T08:04:06.536Z,2.75
2023-05-10T08:06:33.883Z,3.40
2023-05-10T08:09:01.125Z,2.65
2023-05-10T08:11:28.370Z,3.17
2023-05-10T08:13:55.520Z,2.60
2023-05-10T08:16:23.057Z,3.13
2023-05-10T08:18:51.882Z,2.90
2023-05-10T08:21:19.123Z,10.23
2023-05-10T08:23:46.288Z,4.18
2023-05-10T08:26:13.501Z,3.47
2023-05-10T08:28:40.707Z,3.30
2023-05-10T08:31:07.902Z,3.30
2023-05-10T08:33:35.052Z,2.40
2023-05-10T08:36:03.867Z,2.65
2023-05-10T08:38:31.056Z,2.80
2023-05-10T08:40:59.350Z,2.88
2023-05-10T08:43:28.451Z,2.20
2023-05-10T08:45:56.563Z,2.35
2023-05-10T08:48:24.692Z,8.05
2023-05-10T08:50:54.774Z,2.20
2023-05-10T08:53:25.639Z,2.33
2023-05-10T08:55:53.799Z,5.40
2023-05-10T08:58:21.185Z,2.88
2023-05-10T09:00:50.414Z,3.50
2023-05-10T09:03:17.686Z,3.22
2023-05-10T09:05:45.105Z,2.40
2023-05-10T09:08:13.202Z,2.15
2023-05-10T09:10:43.358Z,2.38
2023-05-10T09:13:11.527Z,2.15
2023-05-10T09:15:39.173Z,2.40
2023-05-10T09:18:06.484Z,2.45
2023-05-10T09:20:33.816Z,2.30
2023-05-10T09:23:01.010Z,2.55
2023-05-10T09:25:28.362Z,2.13
2023-05-10T09:27:56.876Z,2.60
2023-05-10T09:30:28.197Z,2.50
2023-05-10T09:32:56.571Z,2.63
2023-05-10T09:35:29.334Z,2.35
2023-05-10T09:38:00.204Z,2.50
2023-05-10T09:40:28.891Z,3.10
2023-05-10T09:42:58.853Z,2.83
2023-05-10T09:45:27.532Z,2.60
2023-05-10T09:47:54.941Z,3.20
2023-05-10T09:50:23.166Z,3.08
2023-05-10T09:52:51.791Z,2.75
2023-05-10T09:55:20.426Z,2.60
2023-05-10T09:57:48.534Z,2.90
2023-05-10T10:00:20.926Z,2.75
2023-05-10T10:02:54.699Z,2.65
2023-05-10T10:05:22.036Z,2.90
2023-05-10T10:07:49.329Z,3.25
2023-05-10T10:10:16.760Z,2.90
2023-05-10T10:12:44.050Z,3.25
2023-05-10T10:15:12.146Z,2.58
2023-05-10T10:17:42.098Z,2.47
2023-05-10T10:20:12.128Z,2.53
2023-05-10T10:22:39.492Z,1.90
2023-05-10T10:25:07.688Z,2.60
2023-05-10T10:27:44.999Z,2.20
2023-05-10T10:30:22.583Z,2.58
2023-05-10T10:33:13.592Z,2.28
2023-05-10T10:35:47.747Z,2.08
2023-05-10T10:38:14.923Z,2.50
2023-05-10T10:40:42.114Z,2.35
2023-05-10T10:43:26.127Z,2.70
2023-05-10T10:46:13.588Z,3.00
2023-05-10T10:48:42.889Z,2.00
2023-05-10T10:51:11.565Z,2.35
2023-05-10T10:53:41.698Z,2.08
2023-05-10T10:56:10.180Z,2.05
2023-05-10T10:58:39.040Z,2.15
2023-05-10T11:01:15.811Z,2.50
2023-05-10T11:04:20.102Z,2.67
2023-05-10T11:06:47.341Z,1.73
2023-05-10T11:09:14.473Z,1.42
2023-05-10T11:11:53.140Z,2.30
2023-05-10T11:14:21.570Z,2.00
2023-05-10T11:16:48.800Z,1.80
2023-05-10T11:19:18.689Z,2.10
2023-05-10T11:21:47.127Z,2.03
2023-05-10T11:24:15.500Z,1.42
2023-05-10T11:26:43.246Z,1.55
2023-05-10T11:29:10.509Z,1.98
2023-05-10T11:31:43.625Z,1.50
2023-05-10T11:34:10.784Z,2.13
2023-05-10T11:36:39.299Z,1.65
2023-05-10T11:39:06.688Z,1.60
2023-05-10T11:41:33.880Z,1.65
2023-05-10T11:44:01.196Z,1.80
2023-05-10T11:46:28.968Z,1.80
2023-05-10T11:48:59.845Z,1.77
2023-05-10T11:51:27.071Z,2.22
2023-05-10T11:53:57.143Z,1.63
2023-05-10T11:56:24.355Z,2.10
2023-05-10T11:58:54.596Z,2.05
2023-05-10T12:01:22.484Z,2.00
2023-05-10T12:03:50.797Z,2.45
2023-05-10T12:06:19.662Z,2.35
2023-05-10T12:08:48.381Z,3.15
2023-05-10T12:11:16.907Z,3.00
2023-05-10T12:13:45.238Z,2.60
2023-05-10T12:16:16.746Z,3.08
2023-05-10T12:18:44.234Z,2.70
2023-05-10T12:21:11.920Z,2.47
2023-05-10T12:23:39.514Z,2.38
2023-05-10T12:26:07.301Z,2.08
2023-05-10T12:28:35.895Z,1.98
2023-05-10T12:31:03.926Z,2.30
2023-05-10T12:33:37.308Z,2.38
2023-05-10T12:36:04.823Z,2.50
2023-05-10T12:38:34.436Z,2.00
2023-05-10T12:41:03.110Z,1.67
2023-05-10T12:43:31.019Z,1.60
2023-05-10T12:45:59.938Z,1.70
2023-05-10T12:48:27.148Z,1.63
2023-05-10T12:50:54.348Z,1.70
2023-05-10T12:53:21.492Z,1.70
2023-05-10T12:55:48.644Z,1.60
2023-05-10T12:58:31.515Z,1.90
2023-05-10T13:01:04.240Z,1.50
2023-05-10T13:03:31.554Z,1.23
2023-05-10T13:05:58.943Z,1.17
2023-05-10T13:08:26.107Z,1.30
2023-05-10T13:10:53.383Z,1.63
2023-05-10T13:13:20.585Z,1.58
2023-05-10T13:15:47.780Z,1.50
2023-05-10T13:18:16.395Z,1.50
2023-05-10T13:20:43.626Z,1.10
2023-05-10T13:23:11.007Z,1.17
2023-05-10T13:25:38.445Z,2.97
2023-05-10T13:28:05.688Z,1.40
2023-05-10T13:30:32.905Z,1.67
2023-05-10T13:33:00.097Z,1.40
2023-05-10T13:35:28.673Z,1.30
2023-05-10T13:37:55.877Z,1.48
2023-05-10T13:40:23.048Z,1.20
2023-05-10T13:42:50.253Z,2.95
2023-05-10T13:45:17.730Z,1.20
2023-05-10T13:47:45.037Z,1.30
2023-05-10T13:50:12.277Z,1.23
2023-05-10T13:52:40.918Z,1.23
2023-05-10T13:55:08.934Z,1.20
2023-05-10T13:57:36.148Z,1.27
2023-05-10T14:00:03.968Z,1.15
2023-05-10T14:02:35.193Z,1.10
2023-05-10T14:05:02.423Z,1.00
2023-05-10T14:07:29.570Z,2.65
2023-05-10T14:09:58.083Z,1.42
2023-05-10T14:12:25.276Z,1.30
2023-05-10T14:14:52.470Z,1.10
2023-05-10T14:17:19.602Z,1.10
2023-05-10T14:19:46.753Z,1.20
2023-05-10T14:22:13.910Z,1.10
2023-05-10T14:24:41.069Z,1.23
2023-05-10T14:27:09.560Z,1.50
2023-05-10T14:29:36.714Z,1.25
2023-05-10T14:32:04.001Z,1.20
2023-05-10T14:34:31.228Z,5.53
2023-05-10T14:36:58.393Z,4.07
2023-05-10T14:39:25.575Z,1.92
2023-05-10T14:41:52.742Z,2.08
2023-05-10T14:44:21.267Z,1.25
2023-05-10T14:46:48.447Z,1.40
2023-05-10T14:49:15.589Z,1.80
2023-05-10T14:51:42.749Z,1.13
2023-05-10T14:54:09.919Z,1.33
2023-05-10T14:56:37.112Z,1.30
2023-05-10T14:59:04.301Z,1.38
2023-05-10T15:01:33.261Z,1.30
2023-05-10T15:04:00.518Z,1.25
2023-05-10T15:06:31.827Z,1.60
2023-05-10T15:08:59.076Z,1.20
2023-05-10T15:11:26.252Z,1.30
2023-05-10T15:13:53.463Z,1.20
2023-05-10T15:16:20.651Z,1.50
2023-05-10T15:18:49.447Z,1.23
2023-05-10T15:21:16.715Z,1.67
2023-05-10T15:23:43.932Z,1.70
2023-05-10T15:26:11.118Z,1.50
2023-05-10T15:28:38.273Z,1.42
2023-05-10T15:31:05.709Z,1.58
2023-05-10T15:33:32.896Z,1.40
2023-05-10T15:36:01.432Z,1.60
2023-05-10T15:38:28.640Z,1.60
2023-05-10T15:40:57.564Z,1.38
2023-05-10T15:43:24.736Z,1.38
2023-05-10T15:45:51.853Z,1.38
2023-05-10T15:48:19.057Z,1.55
2023-05-10T15:50:46.291Z,1.15
2023-05-10T15:53:14.816Z,1.45
2023-05-10T15:55:41.968Z,1.60
2023-05-10T15:58:09.156Z,1.50
2023-05-10T16:00:36.574Z,1.50
2023-05-10T16:03:03.968Z,1.70
2023-05-10T16:05:31.294Z,1.40
2023-05-10T16:07:58.596Z,1.38
2023-05-10T16:10:27.401Z,1.90
2023-05-10T16:12:55.086Z,1.52
2023-05-10T16:15:22.309Z,1.65
2023-05-10T16:17:49.823Z,1.52
2023-05-10T16:20:17.248Z,2.38
2023-05-10T16:22:44.452Z,1.40
2023-05-10T16:25:13.503Z,2.15
2023-05-10T16:27:42.302Z,1.60
2023-05-10T16:30:09.949Z,1.20
2023-05-10T16:32:37.166Z,1.60
2023-05-10T16:35:05.027Z,1.13
2023-05-10T16:37:32.167Z,1.30
2023-05-10T16:39:59.294Z,1.52
2023-05-10T16:42:27.493Z,1.33
2023-05-10T16:44:56.064Z,1.40
2023-05-10T16:47:23.316Z,1.60
2023-05-10T16:49:50.507Z,2.13
2023-05-10T16:52:17.723Z,1.45
2023-05-10T16:54:44.849Z,1.67
2023-05-10T16:57:11.973Z,1.45
2023-05-10T16:59:39.146Z,1.70
2023-05-10T17:02:07.745Z,1.40
2023-05-10T17:04:34.962Z,1.30
2023-05-10T17:07:02.139Z,1.17
2023-05-10T17:09:29.294Z,1.40
2023-05-10T17:11:56.459Z,1.50
2023-05-10T17:14:24.165Z,1.40
2023-05-10T17:16:51.367Z,1.50
2023-05-10T17:19:19.938Z,1.30
2023-05-10T17:21:47.113Z,1.42
2023-05-10T17:24:14.408Z,1.65
2023-05-10T17:26:41.702Z,1.70
2023-05-10T17:29:08.861Z,1.60
2023-05-10T17:31:36.125Z,1.90
2023-05-10T17:34:05.392Z,1.50
2023-05-10T17:36:34.476Z,1.50
2023-05-10T17:39:01.622Z,1.85
2023-05-10T17:41:28.767Z,1.92
2023-05-10T17:43:55.945Z,1.60
2023-05-10T17:46:23.163Z,3.13
2023-05-10T17:48:50.432Z,1.80
2023-05-10T17:51:18.724Z,1.60
2023-05-10T17:53:47.320Z,1.40
2023-05-10T17:56:14.455Z,1.48
2023-05-10T17:58:41.605Z,2.20
2023-05-10T18:01:08.841Z,1.98
2023-05-10T18:03:36.077Z,1.70
2023-05-10T18:06:03.854Z,1.88
2023-05-10T18:08:31.228Z,1.80
2023-05-10T18:10:59.807Z,1.58
2023-05-10T18:13:26.957Z,2.17
2023-05-10T18:15:54.156Z,1.73
2023-05-10T18:18:21.452Z,2.05
2023-05-10T18:20:48.729Z,1.85
2023-05-10T18:23:15.906Z,2.13
2023-05-10T18:25:43.049Z,4.53
2023-05-10T18:28:11.577Z,2.05
2023-05-10T18:30:38.778Z,2.75
2023-05-10T18:33:05.985Z,1.50
2023-05-10T18:35:33.463Z,1.52
2023-05-10T18:38:00.904Z,2.28
2023-05-10T18:40:28.132Z,3.20
2023-05-10T18:42:55.303Z,2.83
2023-05-10T18:45:23.828Z,2.20
2023-05-10T18:47:51.116Z,2.13
2023-05-10T18:50:18.429Z,1.48
2023-05-10T18:52:45.934Z,1.63
2023-05-10T18:55:13.229Z,1.40
2023-05-10T18:57:40.441Z,1.23
2023-05-10T19:00:09.114Z,1.40
2023-05-10T19:02:37.777Z,1.60
2023-05-10T19:05:05.722Z,1.38
2023-05-10T19:07:33.443Z,1.10
2023-05-10T19:10:00.711Z,1.17
2023-05-10T19:12:27.977Z,1.23
2023-05-10T19:14:55.177Z,1.25
2023-05-10T19:17:22.432Z,1.30
2023-05-10T19:19:50.967Z,1.80
2023-05-10T19:22:21.417Z,1.30
2023-05-10T19:24:56.982Z,1.58
2023-05-10T19:27:24.372Z,1.40
2023-05-10T19:29:51.889Z,1.50
2023-05-10T19:32:19.134Z,2.70
2023-05-10T19:34:46.346Z,2.05
2023-05-10T19:37:14.902Z,1.42
2023-05-10T19:39:42.112Z,1.98
2023-05-10T19:42:09.303Z,1.50
2023-05-10T19:44:36.446Z,1.52
2023-05-10T19:47:03.719Z,1.45
2023-05-10T19:49:31.106Z,1.30
2023-05-10T19:51:58.333Z,1.70
2023-05-10T19:54:26.966Z,1.23
2023-05-10T19:56:54.165Z,1.70
2023-05-10T19:59:21.341Z,1.67
2023-05-10T20:01:48.597Z,1.60
2023-05-10T20:04:15.820Z,1.50
2023-05-10T20:06:43.010Z,1.83
2023-05-10T20:09:10.188Z,2.15
2023-05-10T20:11:38.781Z,1.90
2023-05-10T20:14:05.947Z,1.77
2023-05-10T20:16:33.175Z,1.83
2023-05-10T20:19:00.557Z,1.83
2023-05-10T20:21:27.760Z,1.63
2023-05-10T20:23:54.967Z,1.73
2023-05-10T20:26:22.154Z,1.75
2023-05-10T20:28:50.665Z,1.90
2023-05-10T20:31:17.873Z,2.08
2023-05-10T20:33:45.043Z,2.00
2023-05-10T20:36:12.254Z,2.05
2023-05-10T20:38:39.399Z,1.92
2023-05-10T20:41:06.577Z,1.63
2023-05-10T20:43:33.744Z,1.85
2023-05-10T20:46:02.305Z,1.60
2023-05-10T20:48:29.479Z,1.70
2023-05-10T20:50:56.950Z,1.92
2023-05-10T20:53:24.211Z,1.90
2023-05-10T20:55:51.345Z,1.80
2023-05-10T20:58:18.554Z,2.28
2023-05-10T21:00:45.787Z,2.00
2023-05-10T21:03:15.093Z,1.80
2023-05-10T21:05:42.287Z,1.80
2023-05-10T21:08:09.429Z,1.92
2023-05-10T21:10:36.591Z,1.63
2023-05-10T21:13:03.752Z,1.60
2023-05-10T21:15:30.965Z,1.35
2023-05-10T21:17:58.323Z,1.70
2023-05-10T21:20:26.926Z,2.60
2023-05-10T21:22:54.087Z,1.67
2023-05-10T21:25:22.019Z,1.80
2023-05-10T21:27:49.200Z,2.00
2023-05-10T21:30:16.709Z,1.80
2023-05-10T21:32:44.165Z,1.95
2023-05-10T21:35:11.448Z,1.65
2023-05-10T21:37:40.032Z,1.70
2023-05-10T21:40:08.156Z,2.00
2023-05-10T21:42:35.334Z,1.95
2023-05-10T21:45:02.559Z,1.75
2023-05-10T21:47:29.768Z,1.90
2023-05-10T21:49:56.987Z,2.03
2023-05-10T21:52:24.120Z,1.75
2023-05-10T21:54:52.700Z,2.03
2023-05-10T21:57:19.812Z,2.05
2023-05-10T21:59:46.951Z,2.88
2023-05-10T22:02:14.174Z,2.00
2023-05-10T22:04:41.338Z,2.55
2023-05-10T22:07:08.461Z,2.33
2023-05-10T22:09:35.613Z,2.00
2023-05-10T22:12:04.562Z,2.35
2023-05-10T22:14:31.734Z,3.78
2023-05-10T22:16:59.004Z,2.30
2023-05-10T22:19:26.230Z,2.95
2023-05-10T22:21:53.581Z,2.85
2023-05-10T22:24:20.760Z,2.30
2023-05-10T22:26:47.937Z,2.17
2023-05-10T22:29:16.599Z,1.95
2023-05-10T22:31:44.796Z,2.40
2023-05-10T22:34:11.917Z,2.25
2023-05-10T22:36:39.050Z,2.40
2023-05-10T22:39:06.223Z,2.15
2023-05-10T22:41:33.866Z,2.40
2023-05-10T22:44:01.380Z,2.40
2023-05-10T22:46:31.465Z,2.20
2023-05-10T22:48:58.694Z,2.70
2023-05-10T22:51:25.829Z,2.55
2023-05-10T22:53:52.966Z,2.50
2023-05-10T22:56:20.491Z,3.10
2023-05-10T22:58:47.858Z,2.92
2023-05-10T23:01:15.194Z,2.63
2023-05-10T23:03:43.780Z,3.30
2023-05-10T23:06:10.942Z,3.80
2023-05-10T23:08:38.120Z,3.80
2023-05-10T23:11:05.394Z,3.10
2023-05-10T23:13:32.526Z,3.33
2023-05-10T23:16:05.037Z,3.10
2023-05-10T23:18:32.274Z,3.38
2023-05-10T23:21:00.895Z,4.00
2023-05-10T23:23:28.110Z,3.97
2023-05-10T23:25:55.307Z,3.10
2023-05-10T23:28:22.471Z,3.38
2023-05-10T23:30:54.447Z,3.05
2023-05-10T23:33:21.974Z,3.22
2023-05-10T23:35:49.133Z,3.63
2023-05-10T23:38:17.629Z,3.33
2023-05-10T23:40:48.315Z,3.33
2023-05-10T23:43:15.787Z,3.67
2023-05-10T23:45:43.094Z,3.88
2023-05-10T23:48:10.288Z,3.70
2023-05-10T23:50:37.494Z,4.03
2023-05-10T23:53:04.650Z,3.67
2023-05-10T23:55:33.219Z,3.35
2023-05-10T23:58:00.342Z,3.00
